createdAt,value
2018-05-12T00:01:52.771Z,17.28
2018-05-12T00:04:22.001Z,16.77
2018-05-12T00:06:51.262Z,16.68
2018-05-12T00:09:19.722Z,16.78
2018-05-12T00:11:48.948Z,16.88
2018-05-12T00:14:18.188Z,16.62
2018-05-12T00:16:46.749Z,16.98
2018-05-12T00:19:16.003Z,17.02
2018-05-12T00:21:45.346Z,16.95
2018-05-12T00:24:13.999Z,16.78
2018-05-12T00:26:42.701Z,16.52
2018-05-12T00:29:11.388Z,15.89
2018-05-12T00:31:40.279Z,16.23
2018-05-12T00:34:09.853Z,16.05
2018-05-12T00:36:39.522Z,15.77
2018-05-12T00:39:08.414Z,15.71
2018-05-12T00:41:37.087Z,15.76
2018-05-12T00:44:05.618Z,15.64
2018-05-12T00:46:34.137Z,15.90
2018-05-12T00:49:02.600Z,16.08
2018-05-12T00:51:31.802Z,16.51
2018-05-12T00:54:00.335Z,16.61
2018-05-12T00:56:28.931Z,16.50
2018-05-12T00:58:57.973Z,15.62
2018-05-12T01:01:26.856Z,15.27
2018-05-12T01:03:55.383Z,15.52
2018-05-12T01:06:23.803Z,15.39
2018-05-12T01:08:52.264Z,15.39
2018-05-12T01:11:20.689Z,15.24
2018-05-12T01:13:49.949Z,15.62
2018-05-12T01:16:18.384Z,15.59
2018-05-12T01:18:46.817Z,15.38
2018-05-12T01:21:16.017Z,15.10
2018-05-12T01:23:44.437Z,15.20
2018-05-12T01:26:13.666Z,15.13
2018-05-12T01:28:42.143Z,15.22
2018-05-12T01:31:10.682Z,14.98
2018-05-12T01:33:39.223Z,15.15
2018-05-12T01:36:07.922Z,15.61
2018-05-12T01:38:36.701Z,15.69
2018-05-12T01:41:06.397Z,15.89
2018-05-12T01:43:35.046Z,16.13
2018-05-12T01:46:04.398Z,15.80
2018-05-12T01:48:32.906Z,15.94
2018-05-12T01:51:01.405Z,16.05
2018-05-12T01:53:30.864Z,16.20
2018-05-12T01:55:59.343Z,16.26
2018-05-12T01:58:28.590Z,15.95
2018-05-12T02:00:57.086Z,15.48
2018-05-12T02:03:25.581Z,15.42
2018-05-12T02:05:54.048Z,15.20
2018-05-12T02:08:22.491Z,14.67
2018-05-12T02:10:51.710Z,14.57
2018-05-12T02:13:20.128Z,14.57
2018-05-12T02:15:48.617Z,14.74
2018-05-12T02:18:17.816Z,14.80
2018-05-12T02:20:46.237Z,15.00
2018-05-12T02:23:14.680Z,14.46
2018-05-12T02:25:43.200Z,14.49
2018-05-12T02:28:11.683Z,14.56
2018-05-12T02:30:40.184Z,14.48
2018-05-12T02:33:08.828Z,14.76
2018-05-12T02:35:38.331Z,14.49
2018-05-12T02:38:07.071Z,14.71
2018-05-12T02:40:36.613Z,15.13
2018-05-12T02:43:06.382Z,14.70
2018-05-12T02:45:35.781Z,14.79
2018-05-12T02:48:04.344Z,14.02
2018-05-12T02:50:32.847Z,13.88
2018-05-12T02:53:01.359Z,14.39
2018-05-12T02:55:29.792Z,14.95
2018-05-12T02:57:58.294Z,14.79
2018-05-12T03:00:26.800Z,14.03
2018-05-12T03:02:55.321Z,13.97
2018-05-12T03:05:23.805Z,13.60
2018-05-12T03:07:52.273Z,13.77
2018-05-12T03:10:20.785Z,13.85
2018-05-12T03:12:49.981Z,13.98
2018-05-12T03:15:18.421Z,14.37
2018-05-12T03:17:46.857Z,14.21
2018-05-12T03:20:15.278Z,14.26
2018-05-12T03:22:43.785Z,13.89
2018-05-12T03:25:12.280Z,13.52
2018-05-12T03:27:40.779Z,13.95
2018-05-12T03:30:09.412Z,14.33
2018-05-12T03:32:38.095Z,13.92
2018-05-12T03:35:06.834Z,13.81
2018-05-12T03:37:36.320Z,13.53
2018-05-12T03:40:04.885Z,13.41
2018-05-12T03:42:34.159Z,13.52
2018-05-12T03:45:02.608Z,13.65
2018-05-12T03:47:31.095Z,13.69
2018-05-12T03:49:59.515Z,14.03
2018-05-12T03:52:28.037Z,13.85
2018-05-12T03:54:56.548Z,14.14
2018-05-12T03:57:25.809Z,14.11
2018-05-12T03:59:54.405Z,14.05
2018-05-12T04:02:22.790Z,14.21
2018-05-12T04:05:09.069Z,14.04
2018-05-12T04:07:55.285Z,14.29
2018-05-12T04:13:30.732Z,13.97
2018-05-12T04:15:59.208Z,13.81
2018-05-12T04:18:28.488Z,13.80
2018-05-12T04:20:57.106Z,13.23
2018-05-12T04:23:26.549Z,13.23
2018-05-12T04:25:55.001Z,13.55
2018-05-12T04:28:23.492Z,13.39
2018-05-12T04:30:51.941Z,13.35
2018-05-12T04:33:20.373Z,13.83
2018-05-12T04:35:49.586Z,13.50
2018-05-12T04:38:18.751Z,13.57
2018-05-12T04:40:47.195Z,13.41
2018-05-12T04:43:15.657Z,13.49
2018-05-12T04:45:44.111Z,13.34
2018-05-12T04:48:12.608Z,13.49
2018-05-12T04:50:41.240Z,13.43
2018-05-12T04:53:10.781Z,13.58
2018-05-12T04:55:40.396Z,13.85
2018-05-12T04:58:09.326Z,13.91
2018-05-12T05:00:38.243Z,13.98
2018-05-12T05:03:07.383Z,14.06
2018-05-12T05:05:36.263Z,14.08
2018-05-12T05:08:04.949Z,14.24
2018-05-12T05:10:33.485Z,14.12
2018-05-12T05:13:02.030Z,14.19
2018-05-12T05:15:30.523Z,14.29
2018-05-12T05:17:59.088Z,14.36
2018-05-12T05:20:27.641Z,14.37
2018-05-12T05:22:56.427Z,14.37
2018-05-12T05:25:26.061Z,14.43
2018-05-12T05:27:54.971Z,14.43
2018-05-12T05:30:23.678Z,14.50
2018-05-12T05:32:53.267Z,14.46
2018-05-12T05:35:22.485Z,14.45
2018-05-12T05:37:51.286Z,14.50
2018-05-12T05:40:20.426Z,14.53
2018-05-12T05:42:48.919Z,14.52
2018-05-12T05:45:17.365Z,14.60
2018-05-12T05:47:45.840Z,14.63
2018-05-12T05:50:14.512Z,14.63
2018-05-12T05:52:43.003Z,14.69
2018-05-12T05:55:11.582Z,14.76
2018-05-12T05:57:40.112Z,14.74
2018-05-12T06:00:09.348Z,14.77
2018-05-12T06:02:37.769Z,14.82
2018-05-12T06:05:06.243Z,14.87
2018-05-12T06:07:34.665Z,14.88
2018-05-12T06:10:03.102Z,14.90
2018-05-12T06:12:31.555Z,14.92
2018-05-12T06:15:00.021Z,14.94
2018-05-12T06:17:28.492Z,14.99
2018-05-12T06:19:58.059Z,15.05
2018-05-12T06:22:26.841Z,15.09
2018-05-12T06:24:55.762Z,15.11
2018-05-12T06:27:24.824Z,15.12
2018-05-12T06:29:53.819Z,15.17
2018-05-12T06:32:23.550Z,15.17
2018-05-12T06:34:53.289Z,15.20
2018-05-12T06:37:22.261Z,15.25
2018-05-12T06:39:50.843Z,15.25
2018-05-12T06:42:19.772Z,15.29
2018-05-12T06:44:48.294Z,15.30
2018-05-12T06:47:16.746Z,15.44
2018-05-12T06:49:45.257Z,15.54
2018-05-12T06:52:13.779Z,15.54
2018-05-12T06:54:42.335Z,15.67
2018-05-12T06:57:11.635Z,15.65
2018-05-12T06:59:40.115Z,15.64
2018-05-12T07:02:08.609Z,15.85
2018-05-12T07:04:37.141Z,15.68
2018-05-12T07:07:05.648Z,16.15
2018-05-12T07:09:34.315Z,16.13
2018-05-12T07:12:02.959Z,15.90
2018-05-12T07:14:31.720Z,16.12
2018-05-12T07:17:00.994Z,16.18
2018-05-12T07:19:29.503Z,16.21
2018-05-12T07:21:57.921Z,16.41
2018-05-12T07:24:26.475Z,16.71
2018-05-12T07:26:55.699Z,16.41
2018-05-12T07:29:24.917Z,16.36
2018-05-12T07:31:54.126Z,16.94
2018-05-12T07:34:22.572Z,16.55
2018-05-12T07:36:51.028Z,16.40
2018-05-12T07:39:19.632Z,16.60
2018-05-12T07:41:48.274Z,16.56
2018-05-12T07:44:17.097Z,16.55
2018-05-12T07:46:45.903Z,16.54
2018-05-12T07:49:14.848Z,16.60
2018-05-12T07:51:43.921Z,16.75
2018-05-12T07:54:12.802Z,16.81
2018-05-12T07:56:42.768Z,17.01
2018-05-12T07:59:12.589Z,18.03
2018-05-12T08:01:41.904Z,17.63
2018-05-12T08:04:10.421Z,17.65
2018-05-12T08:06:39.009Z,17.68
2018-05-12T08:09:08.405Z,17.47
2018-05-12T08:11:37.347Z,17.62
2018-05-12T08:14:06.437Z,17.80
2018-05-12T08:16:36.451Z,18.00
2018-05-12T08:19:05.720Z,18.37
2018-05-12T08:21:34.781Z,18.33
2018-05-12T08:24:04.037Z,18.18
2018-05-12T08:26:33.138Z,18.40
2018-05-12T08:29:03.061Z,19.00
2018-05-12T08:31:32.468Z,18.74
2018-05-12T08:34:01.055Z,18.52
2018-05-12T08:36:29.588Z,18.87
2018-05-12T08:38:58.086Z,19.29
2018-05-12T08:41:26.573Z,19.30
2018-05-12T08:43:55.053Z,19.26
2018-05-12T08:46:23.666Z,19.51
2018-05-12T08:48:53.035Z,19.60
2018-05-12T08:51:21.712Z,19.23
2018-05-12T08:53:51.016Z,19.56
2018-05-12T08:56:20.232Z,19.85
2018-05-12T08:58:48.728Z,19.56
2018-05-12T09:01:17.200Z,19.50
2018-05-12T09:03:45.654Z,19.69
2018-05-12T09:06:14.052Z,19.36
2018-05-12T09:08:42.517Z,19.64
2018-05-12T09:11:11.100Z,20.20
2018-05-12T09:13:40.481Z,20.27
2018-05-12T09:16:09.126Z,20.57
2018-05-12T09:18:38.512Z,20.12
2018-05-12T09:21:07.257Z,20.50
2018-05-12T09:23:35.761Z,20.56
2018-05-12T09:26:04.241Z,20.82
2018-05-12T09:28:32.723Z,20.51
2018-05-12T09:31:01.218Z,20.80
2018-05-12T09:33:29.780Z,20.81
2018-05-12T09:35:58.274Z,20.55
2018-05-12T09:38:26.768Z,21.04
2018-05-12T09:40:55.283Z,21.15
2018-05-12T09:43:23.878Z,21.15
2018-05-12T09:45:52.531Z,21.40
2018-05-12T09:48:22.124Z,21.41
2018-05-12T09:50:51.020Z,21.24
2018-05-12T09:53:20.031Z,21.42
2018-05-12T09:55:48.831Z,21.69
2018-05-12T09:58:17.621Z,21.52
2018-05-12T10:00:46.118Z,21.70
2018-05-12T10:03:14.629Z,21.81
2018-05-12T10:05:43.866Z,21.89
2018-05-12T10:08:13.045Z,22.06
2018-05-12T10:10:41.691Z,21.80
2018-05-12T10:13:10.303Z,22.07
2018-05-12T10:15:38.820Z,21.96
2018-05-12T10:18:07.467Z,22.09
2018-05-12T10:20:36.720Z,22.21
2018-05-12T10:23:05.993Z,22.17
2018-05-12T10:25:34.443Z,22.09
2018-05-12T10:28:02.910Z,21.76
2018-05-12T10:30:31.322Z,21.92
2018-05-12T10:32:59.807Z,22.17
2018-05-12T10:35:28.300Z,22.29
2018-05-12T10:37:57.529Z,22.26
2018-05-12T10:40:26.853Z,22.17
2018-05-12T10:42:55.413Z,22.07
2018-05-12T10:45:24.148Z,22.20
2018-05-12T10:47:52.920Z,22.41
2018-05-12T10:50:21.934Z,22.41
2018-05-12T10:52:50.857Z,22.49
2018-05-12T10:55:19.754Z,22.62
2018-05-12T10:57:48.453Z,22.62
2018-05-12T11:00:17.063Z,22.64
2018-05-12T11:02:45.597Z,22.62
2018-05-12T11:05:14.039Z,22.73
2018-05-12T11:07:42.548Z,22.83
2018-05-12T11:10:11.063Z,23.00
2018-05-12T11:12:39.691Z,22.96
2018-05-12T11:15:09.053Z,23.25
2018-05-12T11:17:37.479Z,23.69
2018-05-12T11:20:05.971Z,23.66
2018-05-12T11:22:34.468Z,23.54
2018-05-12T11:25:03.307Z,23.55
2018-05-12T11:27:32.191Z,23.54
2018-05-12T11:30:01.482Z,23.69
2018-05-12T11:32:30.912Z,23.71
2018-05-12T11:35:00.389Z,23.41
2018-05-12T11:37:29.412Z,23.33
2018-05-12T11:39:58.006Z,23.20
2018-05-12T11:42:26.568Z,23.08
2018-05-12T11:44:55.794Z,23.39
2018-05-12T11:47:24.282Z,23.92
2018-05-12T11:49:53.523Z,24.05
2018-05-12T11:52:22.051Z,24.19
2018-05-12T11:54:51.464Z,23.69
2018-05-12T11:57:20.089Z,23.99
2018-05-12T11:59:48.644Z,23.82
2018-05-12T12:02:17.172Z,23.88
2018-05-12T12:04:45.689Z,23.97
2018-05-12T12:07:14.136Z,24.05
2018-05-12T12:09:42.585Z,24.09
2018-05-12T12:12:11.070Z,24.14
2018-05-12T12:14:39.552Z,24.01
2018-05-12T12:17:08.928Z,23.85
2018-05-12T12:19:37.365Z,24.10
2018-05-12T12:22:06.060Z,24.18
2018-05-12T12:24:34.945Z,24.10
2018-05-12T12:27:04.236Z,24.05
2018-05-12T12:29:36.943Z,24.15
2018-05-12T12:32:06.372Z,24.35
2018-05-12T12:34:34.952Z,24.31
2018-05-12T12:37:03.705Z,24.58
2018-05-12T12:39:33.920Z,24.87
2018-05-12T12:42:03.612Z,24.51
2018-05-12T12:44:33.750Z,24.75
2018-05-12T12:47:03.466Z,24.61
2018-05-12T12:49:33.770Z,25.02
2018-05-12T12:52:03.540Z,25.23
2018-05-12T12:54:32.613Z,25.35
2018-05-12T12:57:01.502Z,25.36
2018-05-12T12:59:31.932Z,25.04
2018-05-12T13:02:01.495Z,25.08
2018-05-12T13:04:30.468Z,25.06
2018-05-12T13:07:01.053Z,25.46
2018-05-12T13:09:33.231Z,25.70
2018-05-12T13:12:06.683Z,25.83
2018-05-12T13:14:35.352Z,25.36
2018-05-12T13:17:09.333Z,25.79
2018-05-12T13:19:39.918Z,25.68
2018-05-12T13:22:08.671Z,25.41
2018-05-12T13:24:39.246Z,25.84
2018-05-12T13:27:40.305Z,25.99
2018-05-12T13:30:10.008Z,25.99
2018-05-12T13:33:02.706Z,26.18
2018-05-12T13:35:37.942Z,26.29
2018-05-12T13:38:07.795Z,25.65
2018-05-12T13:40:36.411Z,25.81
2018-05-12T13:43:05.083Z,26.44
2018-05-12T13:45:34.006Z,26.60
2018-05-12T13:48:12.399Z,26.47
2018-05-12T13:50:40.881Z,26.48
2018-05-12T13:53:10.170Z,26.82
2018-05-12T13:55:38.641Z,26.63
2018-05-12T13:58:07.422Z,26.47
2018-05-12T14:00:36.125Z,26.69
2018-05-12T14:03:05.024Z,26.91
2018-05-12T14:05:33.795Z,26.86
2018-05-12T14:08:10.436Z,27.06
2018-05-12T14:10:38.970Z,26.99
2018-05-12T14:13:07.691Z,27.22
2018-05-12T14:15:36.671Z,27.06
2018-05-12T14:18:05.159Z,27.11
2018-05-12T14:20:33.745Z,27.26
2018-05-12T14:23:05.479Z,26.47
2018-05-12T14:25:34.026Z,27.06
2018-05-12T14:28:02.685Z,27.17
2018-05-12T14:30:31.301Z,27.33
2018-05-12T14:32:59.863Z,26.56
2018-05-12T14:35:28.415Z,26.34
2018-05-12T14:37:56.946Z,26.13
2018-05-12T14:40:25.436Z,25.77
2018-05-12T14:42:53.943Z,26.34
2018-05-12T14:45:22.463Z,25.59
2018-05-12T14:47:51.044Z,25.79
2018-05-12T14:50:19.636Z,25.86
2018-05-12T14:52:48.209Z,26.00
2018-05-12T14:55:17.936Z,25.84
2018-05-12T14:57:46.840Z,26.05
2018-05-12T15:00:15.502Z,26.17
2018-05-12T15:02:48.364Z,26.02
2018-05-12T15:05:17.060Z,25.54
2018-05-12T15:07:47.105Z,25.75
2018-05-12T15:10:15.773Z,25.63
2018-05-12T15:12:44.554Z,26.25
2018-05-12T15:15:14.010Z,26.56
2018-05-12T15:17:43.704Z,26.33
2018-05-12T15:20:12.462Z,25.98
2018-05-12T15:22:41.247Z,25.71
2018-05-12T15:25:10.881Z,25.78
2018-05-12T15:27:39.780Z,25.72
2018-05-12T15:30:08.247Z,25.66
2018-05-12T15:32:36.752Z,25.83
2018-05-12T15:35:05.196Z,25.59
2018-05-12T15:37:34.471Z,25.95
2018-05-12T15:40:03.005Z,25.80
2018-05-12T15:42:31.633Z,25.58
2018-05-12T15:45:00.158Z,25.62
2018-05-12T15:47:28.600Z,25.48
2018-05-12T15:49:57.116Z,25.30
2018-05-12T15:52:25.539Z,25.40
2018-05-12T15:54:54.040Z,25.32
2018-05-12T15:57:22.549Z,24.94
2018-05-12T15:59:50.986Z,25.06
2018-05-12T16:02:19.445Z,25.00
2018-05-12T16:04:50.819Z,25.04
2018-05-12T16:07:19.260Z,25.08
2018-05-12T16:09:47.783Z,25.12
2018-05-12T16:12:16.529Z,25.00
2018-05-12T16:14:45.304Z,24.95
2018-05-12T16:17:18.030Z,25.04
2018-05-12T16:19:46.724Z,24.86
2018-05-12T16:22:15.425Z,25.19
2018-05-12T16:24:44.581Z,25.25
2018-05-12T16:27:17.261Z,25.06
2018-05-12T16:29:46.146Z,24.99
2018-05-12T16:32:14.843Z,24.78
2018-05-12T16:34:44.718Z,25.03
2018-05-12T16:37:13.504Z,25.16
2018-05-12T16:39:45.294Z,24.79
2018-05-12T16:42:19.701Z,24.78
2018-05-12T16:44:48.276Z,25.09
2018-05-12T16:47:16.861Z,24.72
2018-05-12T16:49:45.444Z,24.45
2018-05-12T16:52:14.349Z,24.55
2018-05-12T16:54:43.651Z,24.37
2018-05-12T16:57:16.132Z,24.25
2018-05-12T16:59:48.943Z,24.35
2018-05-12T17:02:17.569Z,24.31
2018-05-12T17:04:46.270Z,24.20
2018-05-12T17:07:15.046Z,24.38
2018-05-12T17:09:48.519Z,24.33
2018-05-12T17:12:17.118Z,24.25
2018-05-12T17:14:46.516Z,23.97
2018-05-12T17:17:15.298Z,24.02
2018-05-12T17:19:44.156Z,23.90
2018-05-12T17:22:17.366Z,23.97
2018-05-12T17:24:48.982Z,23.94
2018-05-12T17:27:17.609Z,23.94
2018-05-12T17:29:49.439Z,23.89
2018-05-12T17:32:18.065Z,23.81
2018-05-12T17:34:46.899Z,23.89
2018-05-12T17:37:18.888Z,23.48
2018-05-12T17:39:49.592Z,23.74
2018-05-12T17:42:19.508Z,23.62
2018-05-12T17:44:48.079Z,23.72
2018-05-12T17:47:17.126Z,23.57
2018-05-12T17:49:46.040Z,23.76
2018-05-12T17:52:14.856Z,23.66
2018-05-12T17:54:44.761Z,23.25
2018-05-12T17:57:13.589Z,23.15
2018-05-12T17:59:43.386Z,23.37
2018-05-12T18:02:12.566Z,23.31
2018-05-12T18:04:41.398Z,23.49
2018-05-12T18:07:13.594Z,23.23
2018-05-12T18:09:44.081Z,23.20
2018-05-12T18:12:23.695Z,23.28
2018-05-12T18:14:56.278Z,23.06
2018-05-12T18:17:25.286Z,22.99
2018-05-12T18:19:53.986Z,22.98
2018-05-12T18:22:23.565Z,23.10
2018-05-12T18:24:53.255Z,22.84
2018-05-12T18:27:22.107Z,22.77
2018-05-12T18:29:50.765Z,22.92
2018-05-12T18:32:19.279Z,22.51
2018-05-12T18:34:47.743Z,22.58
2018-05-12T18:37:16.220Z,22.59
2018-05-12T18:39:45.578Z,22.68
2018-05-12T18:42:14.197Z,22.51
2018-05-12T18:44:42.821Z,22.48
2018-05-12T18:47:11.378Z,22.48
2018-05-12T18:49:39.824Z,22.18
2018-05-12T18:52:31.370Z,22.08
2018-05-12T18:55:02.550Z,22.24
2018-05-12T18:57:31.078Z,22.42
2018-05-12T18:59:59.635Z,22.35
2018-05-12T19:02:28.264Z,22.20
2018-05-12T19:04:57.604Z,22.26
2018-05-12T19:07:26.117Z,22.03
2018-05-12T19:09:54.823Z,22.11
2018-05-12T19:12:23.311Z,22.01
2018-05-12T19:14:57.074Z,22.09
2018-05-12T19:17:25.530Z,21.69
2018-05-12T19:19:55.109Z,22.17
2018-05-12T19:22:23.904Z,22.56
2018-05-12T19:24:52.290Z,22.77
2018-05-12T19:27:20.855Z,21.95
2018-05-12T19:29:49.556Z,21.83
2018-05-12T19:32:18.185Z,21.34
2018-05-12T19:34:46.852Z,21.69
2018-05-12T19:37:15.451Z,21.79
2018-05-12T19:39:43.904Z,21.99
2018-05-12T19:42:12.381Z,22.37
2018-05-12T19:44:40.884Z,21.89
2018-05-12T19:47:09.374Z,21.62
2018-05-12T19:49:38.248Z,21.66
2018-05-12T19:52:06.752Z,21.13
2018-05-12T19:54:36.247Z,21.34
2018-05-12T19:57:04.739Z,20.92
2018-05-12T19:59:33.260Z,21.29
2018-05-12T20:02:01.761Z,21.16
2018-05-12T20:04:30.480Z,21.15
2018-05-12T20:06:59.482Z,20.77
2018-05-12T20:09:27.916Z,20.63
2018-05-12T20:11:56.499Z,20.29
2018-05-12T20:14:25.023Z,20.61
2018-05-12T20:16:53.536Z,19.76
2018-05-12T20:19:21.998Z,20.68
2018-05-12T20:21:50.727Z,20.87
2018-05-12T20:24:19.201Z,20.43
2018-05-12T20:26:47.717Z,20.37
2018-05-12T20:29:16.149Z,20.27
2018-05-12T20:31:44.610Z,20.22
2018-05-12T20:34:13.917Z,20.45
2018-05-12T20:36:42.364Z,20.44
2018-05-12T20:39:10.866Z,20.24
2018-05-12T20:41:39.328Z,20.11
2018-05-12T20:44:07.856Z,19.94
2018-05-12T20:46:36.350Z,19.94
2018-05-12T20:49:04.838Z,20.20
2018-05-12T20:51:33.325Z,20.14
2018-05-12T20:54:01.780Z,19.88
2018-05-12T20:56:30.263Z,19.51
2018-05-12T20:58:58.767Z,19.65
2018-05-12T21:01:27.258Z,19.72
2018-05-12T21:03:55.737Z,19.81
2018-05-12T21:06:24.235Z,19.97
2018-05-12T21:08:53.603Z,19.82
2018-05-12T21:11:22.090Z,19.63
2018-05-12T21:13:50.563Z,19.72
2018-05-12T21:16:19.029Z,19.39
2018-05-12T21:18:47.494Z,19.27
2018-05-12T21:21:16.873Z,18.92
2018-05-12T21:23:45.486Z,18.51
2018-05-12T21:26:13.889Z,18.83
2018-05-12T21:28:42.418Z,19.06
2018-05-12T21:31:10.992Z,19.50
2018-05-12T21:33:39.528Z,18.75
2018-05-12T21:36:08.007Z,18.70
2018-05-12T21:38:47.667Z,18.88
2018-05-12T21:41:18.425Z,18.81
2018-05-12T21:43:47.083Z,18.79
2018-05-12T21:46:15.598Z,18.88
2018-05-12T21:48:45.793Z,18.87
2018-05-12T21:51:14.256Z,19.18
2018-05-12T21:53:42.809Z,19.26
2018-05-12T21:56:11.297Z,19.15
2018-05-12T21:58:39.732Z,19.29
2018-05-12T22:01:08.210Z,19.57
2018-05-12T22:03:36.642Z,18.98
2018-05-12T22:06:05.185Z,18.33
2018-05-12T22:08:34.445Z,18.44
2018-05-12T22:11:02.890Z,18.17
2018-05-12T22:13:31.382Z,18.45
2018-05-12T22:15:59.885Z,18.49
2018-05-12T22:18:28.440Z,18.70
2018-05-12T22:20:57.763Z,18.88
2018-05-12T22:23:27.033Z,19.32
2018-05-12T22:25:55.519Z,19.59
2018-05-12T22:28:24.032Z,19.72
2018-05-12T22:30:52.507Z,19.69
2018-05-12T22:33:21.747Z,19.04
2018-05-12T22:35:50.191Z,18.99
2018-05-12T22:38:18.660Z,19.41
2018-05-12T22:40:47.888Z,19.61
2018-05-12T22:43:16.770Z,19.71
2018-05-12T22:45:45.266Z,19.50
2018-05-12T22:48:13.710Z,19.36
2018-05-12T22:50:42.178Z,18.78
2018-05-12T22:53:10.644Z,18.07
2018-05-12T22:55:39.084Z,18.29
2018-05-12T22:58:07.562Z,18.39
2018-05-12T23:00:36.014Z,18.13
2018-05-12T23:03:05.305Z,17.97
2018-05-12T23:05:33.874Z,17.86
2018-05-12T23:08:02.446Z,17.83
2018-05-12T23:10:30.932Z,18.20
2018-05-12T23:12:59.544Z,18.05
2018-05-12T23:15:28.012Z,17.59
2018-05-12T23:17:57.325Z,17.84
2018-05-12T23:20:25.802Z,17.53
2018-05-12T23:22:55.055Z,17.51
2018-05-12T23:25:23.487Z,17.86
2018-05-12T23:27:52.144Z,18.13
2018-05-12T23:30:21.375Z,17.71
2018-05-12T23:32:50.668Z,18.26
2018-05-12T23:35:19.244Z,18.70
2018-05-12T23:37:47.761Z,19.01
2018-05-12T23:40:16.395Z,18.04
2018-05-12T23:42:44.924Z,17.65
2018-05-12T23:45:13.383Z,17.51
2018-05-12T23:47:41.899Z,17.27
2018-05-12T23:50:10.365Z,17.29
2018-05-12T23:52:38.812Z,17.47
2018-05-12T23:55:07.360Z,17.44
2018-05-12T23:57:35.977Z,17.33
